Time;durP1;ratioP1;P1;durP2;ratioP2;P2;SDS_P1;SDS_P2;PMS_P1;PMS_P2;Temp;Humidity;BMP_temperature;BMP_pressure;BME280_temperature;BME280_humidity;BME280_pressure;Samples;Min_cycle;Max_cycle;Signal;HPM_P1;HPM_P2
2023/01/28 00:02:07;;;;;;;1.83;1.30;;;3.70;99.90;;;;;;4973790;28;20407;-83
2023/01/28 00:04:33;;;;;;;2.03;1.50;;;3.70;99.90;;;;;;4974261;28;20031;-82
2023/01/28 00:06:59;;;;;;;3.40;1.92;;;3.70;99.90;;;;;;4970036;28;20027;-83
2023/01/28 00:09:24;;;;;;;3.20;1.75;;;3.60;99.90;;;;;;4974422;28;20031;-83
2023/01/28 00:11:50;;;;;;;1.33;1.20;;;3.70;99.90;;;;;;4973894;28;20042;-83
2023/01/28 00:14:16;;;;;;;1.60;1.42;;;3.70;99.90;;;;;;4974139;28;20517;-83
2023/01/28 00:16:42;;;;;;;2.67;1.20;;;3.70;99.90;;;;;;4972876;28;20141;-82
2023/01/28 00:19:08;;;;;;;2.72;1.90;;;3.70;99.90;;;;;;4956564;28;20035;-83
2023/01/28 00:21:34;;;;;;;2.03;1.33;;;3.80;99.90;;;;;;4973910;28;20027;-82
2023/01/28 00:23:59;;;;;;;3.45;1.75;;;3.70;99.90;;;;;;4973832;28;20169;-82
2023/01/28 00:26:25;;;;;;;2.20;1.48;;;3.70;99.90;;;;;;4973445;28;20395;-83
2023/01/28 00:28:51;;;;;;;3.35;1.38;;;3.70;99.90;;;;;;4972176;28;20043;-82
2023/01/28 00:31:23;;;;;;;1.20;0.82;;;3.70;99.90;;;;;;4972837;28;20031;-82
2023/01/28 00:33:50;;;;;;;1.67;1.02;;;3.70;99.90;;;;;;4973158;28;20499;-82
2023/01/28 00:36:18;;;;;;;2.63;1.65;;;3.60;99.90;;;;;;4952469;29;20032;-82
2023/01/28 00:38:50;;;;;;;2.15;1.42;;;3.70;99.90;;;;;;4954206;28;20038;-82
2023/01/28 00:41:20;;;;;;;1.48;1.10;;;3.60;99.90;;;;;;4969325;28;20062;-83
2023/01/28 00:43:47;;;;;;;3.25;1.83;;;3.60;99.90;;;;;;4971647;28;20023;-83
2023/01/28 00:46:14;;;;;;;3.20;1.80;;;3.60;99.90;;;;;;4972059;28;20031;-83
2023/01/28 00:48:42;;;;;;;3.30;1.25;;;3.60;99.90;;;;;;4972787;28;20085;-83
2023/01/28 00:51:09;;;;;;;2.60;0.93;;;3.60;99.90;;;;;;4972716;28;20487;-84
2023/01/28 00:53:37;;;;;;;1.95;1.52;;;3.60;99.90;;;;;;4973220;28;20046;-83
2023/01/28 00:56:05;;;;;;;2.47;1.77;;;3.50;99.90;;;;;;4973024;28;20058;-84
2023/01/28 00:58:31;;;;;;;1.80;1.08;;;3.50;99.90;;;;;;4962961;28;20380;-82
2023/01/28 01:01:26;;;;;;;1.55;1.15;;;3.60;99.90;;;;;;4970932;28;20038;-82
2023/01/28 01:04:01;;;;;;;3.58;1.17;;;3.60;99.90;;;;;;4973223;28;20101;-83
2023/01/28 01:06:34;;;;;;;1.17;0.88;;;3.60;99.90;;;;;;4971306;28;20031;-83
2023/01/28 01:09:01;;;;;;;2.22;1.13;;;3.50;99.90;;;;;;4972260;28;20026;-83
2023/01/28 01:11:27;;;;;;;4.40;1.05;;;3.50;99.90;;;;;;4972012;28;20035;-83
2023/01/28 01:13:55;;;;;;;1.95;1.02;;;3.50;99.90;;;;;;4972296;28;20049;-82
2023/01/28 01:16:24;;;;;;;3.05;1.65;;;3.50;99.90;;;;;;4972396;28;20089;-82
2023/01/28 01:18:52;;;;;;;3.88;1.30;;;3.40;99.90;;;;;;4972102;28;20035;-82
2023/01/28 01:21:21;;;;;;;1.58;1.48;;;3.40;99.90;;;;;;4971852;28;20027;-83
2023/01/28 01:23:47;;;;;;;1.55;0.90;;;3.40;99.90;;;;;;4971961;28;20107;-82
2023/01/28 01:26:14;;;;;;;1.98;1.10;;;3.40;99.90;;;;;;4971081;28;20026;-82
2023/01/28 01:28:40;;;;;;;2.05;0.95;;;3.40;99.90;;;;;;4971637;28;20178;-82
2023/01/28 01:31:13;;;;;;;2.38;1.05;;;3.40;99.90;;;;;;4971691;28;20039;-81
2023/01/28 01:33:41;;;;;;;2.00;1.58;;;3.40;99.90;;;;;;4971658;28;20030;-82
2023/01/28 01:36:08;;;;;;;1.55;1.05;;;3.50;99.90;;;;;;4954888;28;20037;-82
2023/01/28 01:38:35;;;;;;;2.78;1.33;;;3.50;99.90;;;;;;4970817;28;20038;-82
2023/01/28 01:41:04;;;;;;;2.05;1.52;;;3.40;99.90;;;;;;4972579;28;20113;-82
2023/01/28 01:43:54;;;;;;;2.80;1.27;;;3.50;99.90;;;;;;4971373;28;20387;-82
2023/01/28 01:46:46;;;;;;;2.83;1.38;;;3.50;99.90;;;;;;4951195;28;20035;-82
2023/01/28 01:49:20;;;;;;;1.10;0.77;;;3.50;99.90;;;;;;4970815;28;20039;-81
2023/01/28 01:51:51;;;;;;;1.20;0.77;;;3.50;99.90;;;;;;4970763;28;20070;-82
2023/01/28 01:54:20;;;;;;;2.15;1.10;;;3.60;99.90;;;;;;4967990;28;20031;-82
2023/01/28 01:56:49;;;;;;;1.83;1.10;;;3.60;99.90;;;;;;4970637;28;20066;-83
2023/01/28 01:59:24;;;;;;;1.55;1.05;;;3.50;99.90;;;;;;4971311;28;20069;-82
2023/01/28 02:01:51;;;;;;;0.77;0.70;;;3.50;99.90;;;;;;4972087;28;20035;-83
2023/01/28 02:04:25;;;;;;;1.55;1.00;;;3.50;99.90;;;;;;4967893;28;20031;-82
2023/01/28 02:06:51;;;;;;;2.75;1.02;;;3.50;99.90;;;;;;4943450;28;20131;-82
2023/01/28 02:09:34;;;;;;;1.45;0.80;;;3.50;99.90;;;;;;4966749;28;20058;-82
2023/01/28 02:12:07;;;;;;;1.23;0.60;;;3.40;99.90;;;;;;4968752;28;20035;-82
2023/01/28 02:14:40;;;;;;;0.88;0.50;;;3.30;99.90;;;;;;4970812;28;20097;-82
2023/01/28 02:17:06;;;;;;;1.33;1.00;;;3.30;99.90;;;;;;4954390;28;20042;-82
2023/01/28 02:19:51;;;;;;;1.00;0.80;;;3.30;99.90;;;;;;4970596;28;20097;-83
2023/01/28 02:23:04;;;;;;;9.70;1.08;;;3.30;99.90;;;;;;4956737;28;20106;-84
2023/01/28 02:26:11;;;;;;;1.30;0.95;;;3.30;99.90;;;;;;4962446;28;20051;-82
2023/01/28 02:29:18;;;;;;;1.88;1.00;;;3.30;99.90;;;;;;4938674;28;20165;-82
2023/01/28 02:32:21;;;;;;;0.82;0.65;;;3.30;99.90;;;;;;4971463;28;20038;-83
2023/01/28 02:35:04;;;;;;;0.93;0.68;;;3.30;99.90;;;;;;4968994;28;20053;-83
2023/01/28 02:37:39;;;;;;;1.00;0.90;;;3.40;99.90;;;;;;4969920;28;20403;-83
2023/01/28 02:40:11;;;;;;;2.03;1.35;;;3.40;99.90;;;;;;4950127;28;20027;-83
2023/01/28 02:42:39;;;;;;;0.82;0.70;;;3.30;99.90;;;;;;4949488;28;20119;-82
2023/01/28 02:48:20;;;;;;;0.90;0.68;;;3.40;99.90;;;;;;4951087;28;20039;-83
2023/01/28 02:51:04;;;;;;;2.42;0.85;;;3.40;99.90;;;;;;4943590;28;20529;-82
2023/01/28 02:53:49;;;;;;;3.25;1.02;;;3.30;99.90;;;;;;4966952;28;20090;-82
2023/01/28 02:57:03;;;;;;;4.03;1.40;;;3.30;99.90;;;;;;4969833;28;20039;-82
2023/01/28 03:00:06;;;;;;;1.17;0.82;;;3.20;99.90;;;;;;4961544;28;20055;-82
2023/01/28 03:03:12;;;;;;;1.38;0.73;;;3.20;99.90;;;;;;4953768;28;20442;-82
2023/01/28 03:06:24;;;;;;;1.00;0.52;;;3.20;99.90;;;;;;4953804;28;20047;-82
2023/01/28 03:38:16;;;;;;;2.33;1.33;;;3.00;99.90;;;;;;4972641;28;20035;-83
2023/01/28 03:41:01;;;;;;;1.38;1.10;;;3.00;99.90;;;;;;4973197;28;20175;-83
2023/01/28 03:43:29;;;;;;;1.00;0.80;;;3.00;99.90;;;;;;4954249;28;20118;-83
2023/01/28 03:45:55;;;;;;;1.20;0.88;;;2.90;99.90;;;;;;4966943;28;20501;-82
2023/01/28 03:48:24;;;;;;;2.45;0.93;;;3.00;99.90;;;;;;4956235;28;20510;-83
2023/01/28 03:50:52;;;;;;;2.38;1.33;;;3.00;99.90;;;;;;4973007;28;20121;-83
2023/01/28 03:53:18;;;;;;;1.75;0.88;;;3.00;99.90;;;;;;4973465;28;20165;-83
2023/01/28 03:55:48;;;;;;;1.60;0.80;;;3.00;99.90;;;;;;4972815;28;20050;-83
2023/01/28 03:58:15;;;;;;;1.70;1.55;;;3.00;99.90;;;;;;4955891;28;20042;-82
2023/01/28 04:00:42;;;;;;;1.58;0.82;;;3.00;99.90;;;;;;4956673;28;20034;-83
2023/01/28 04:03:20;;;;;;;2.28;0.68;;;3.00;99.90;;;;;;4969445;28;20623;-82
2023/01/28 04:06:06;;;;;;;2.95;1.60;;;3.00;99.90;;;;;;4970443;28;20026;-82
2023/01/28 04:08:32;;;;;;;2.78;1.30;;;3.00;99.90;;;;;;4954330;28;20039;-82
2023/01/28 04:11:14;;;;;;;1.73;1.23;;;3.00;99.90;;;;;;4967339;28;20100;-82
2023/01/28 04:13:43;;;;;;;;;;;3.00;99.90;;;;;;4973725;28;20037;-82
2023/01/28 04:16:11;;;;;;;2.60;1.20;;;2.90;99.90;;;;;;4971731;28;19921;-82
2023/01/28 04:18:37;;;;;;;1.10;0.73;;;2.90;99.90;;;;;;4972894;28;20121;-82
2023/01/28 04:21:03;;;;;;;2.13;1.25;;;3.00;99.90;;;;;;4972305;28;20110;-82
2023/01/28 04:23:28;;;;;;;1.98;1.00;;;3.00;99.90;;;;;;4973514;28;20031;-82
2023/01/28 04:25:55;;;;;;;1.83;0.73;;;3.10;99.90;;;;;;4971710;28;20031;-82
2023/01/28 04:28:20;;;;;;;2.00;0.77;;;3.10;99.90;;;;;;4955297;28;20058;-82
2023/01/28 04:30:46;;;;;;;1.77;1.13;;;3.00;99.90;;;;;;4971794;28;20063;-83
2023/01/28 04:33:13;;;;;;;0.57;0.47;;;2.90;99.90;;;;;;4973249;28;20516;-82
2023/01/28 04:35:39;;;;;;;1.42;0.95;;;2.90;99.90;;;;;;4955448;28;20043;-82
2023/01/28 04:38:04;;;;;;;0.88;0.82;;;2.90;99.90;;;;;;4972457;28;20117;-81
2023/01/28 04:40:30;;;;;;;0.88;0.80;;;2.80;99.90;;;;;;4971460;28;20038;-82
2023/01/28 04:42:57;;;;;;;1.33;1.00;;;2.90;99.90;;;;;;4973164;28;20034;-81
2023/01/28 04:45:23;;;;;;;1.60;0.60;;;2.80;99.90;;;;;;4951792;28;20045;-81
2023/01/28 04:47:49;;;;;;;1.27;0.90;;;2.80;99.90;;;;;;4955080;28;20038;-81
2023/01/28 04:50:15;;;;;;;1.25;0.73;;;2.80;99.90;;;;;;4955478;28;20038;-82
2023/01/28 04:52:41;;;;;;;1.92;1.30;;;2.90;99.90;;;;;;4971874;28;20034;-81
2023/01/28 04:55:08;;;;;;;1.92;1.25;;;2.80;99.90;;;;;;4972358;28;20022;-81
2023/01/28 04:57:34;;;;;;;1.38;1.20;;;2.80;99.90;;;;;;4971026;28;20037;-81
2023/01/28 05:00:00;;;;;;;0.82;0.70;;;2.80;99.90;;;;;;4972589;28;20027;-81
2023/01/28 05:02:25;;;;;;;1.23;0.60;;;2.90;99.90;;;;;;4971555;28;20097;-80
2023/01/28 05:04:51;;;;;;;2.83;1.05;;;2.80;99.90;;;;;;4971088;28;20062;-81
2023/01/28 05:07:17;;;;;;;2.58;1.13;;;2.80;99.90;;;;;;4971090;28;20050;-81
2023/01/28 05:09:42;;;;;;;2.40;1.00;;;2.80;99.90;;;;;;4972503;28;20066;-81
2023/01/28 05:12:08;;;;;;;4.00;0.88;;;2.80;99.90;;;;;;4972727;28;20034;-81
2023/01/28 05:14:34;;;;;;;1.95;1.02;;;2.70;99.90;;;;;;4972318;28;20035;-81
2023/01/28 05:16:59;;;;;;;1.90;0.85;;;2.80;99.90;;;;;;4939214;28;20454;-80
2023/01/28 05:19:25;;;;;;;1.05;0.82;;;2.90;99.90;;;;;;4998257;23;20054;-79
2023/01/28 05:21:51;;;;;;;3.05;0.95;;;2.80;99.90;;;;;;4990352;28;20054;-79
2023/01/28 05:24:16;;;;;;;5.97;1.15;;;2.70;99.90;;;;;;4990224;28;20038;-78
2023/01/28 05:26:42;;;;;;;2.35;1.40;;;2.70;99.90;;;;;;4997702;28;20473;-79
2023/01/28 05:29:08;;;;;;;1.92;0.95;;;2.70;99.90;;;;;;4982814;28;20038;-79
2023/01/28 05:31:34;;;;;;;1.17;0.90;;;2.70;99.90;;;;;;4986947;28;20042;-75
2023/01/28 05:34:00;;;;;;;4.82;1.38;;;2.80;99.90;;;;;;4970973;28;20507;-79
2023/01/28 05:36:25;;;;;;;3.97;2.22;;;2.80;99.90;;;;;;4971329;28;20062;-79
2023/01/28 05:38:51;;;;;;;2.20;0.82;;;2.90;99.90;;;;;;4982526;28;20027;-78
2023/01/28 05:41:17;;;;;;;3.88;0.95;;;2.90;99.90;;;;;;4987057;28;20022;-78
2023/01/28 05:43:42;;;;;;;5.82;1.63;;;2.90;99.90;;;;;;4977174;28;20367;-79
2023/01/28 05:46:08;;;;;;;2.33;1.40;;;2.90;99.90;;;;;;4983499;28;20054;-79
2023/01/28 05:48:34;;;;;;;1.20;0.88;;;2.80;99.90;;;;;;4981638;28;20094;-79
2023/01/28 05:51:00;;;;;;;2.08;1.50;;;2.80;99.90;;;;;;4973063;28;20031;-79
2023/01/28 05:53:26;;;;;;;1.38;0.73;;;2.90;99.90;;;;;;4969667;28;20031;-78
2023/01/28 05:55:52;;;;;;;1.48;1.02;;;2.90;99.90;;;;;;4971685;28;20061;-80
2023/01/28 05:58:19;;;;;;;0.75;0.73;;;2.80;99.90;;;;;;4969939;28;20027;-79
2023/01/28 06:00:45;;;;;;;1.70;0.93;;;2.90;99.90;;;;;;4974192;28;20027;-78
2023/01/28 06:03:11;;;;;;;1.67;1.08;;;2.80;99.90;;;;;;4966805;28;20495;-79
2023/01/28 06:05:37;;;;;;;2.30;1.30;;;2.90;99.90;;;;;;4971412;28;20018;-78
2023/01/28 06:08:03;;;;;;;1.85;1.20;;;2.90;99.90;;;;;;4969517;28;20049;-78
2023/01/28 06:10:29;;;;;;;2.25;1.17;;;3.00;99.90;;;;;;4982155;28;20042;-78
2023/01/28 06:12:55;;;;;;;1.23;0.90;;;2.90;99.90;;;;;;4983303;28;20038;-78
2023/01/28 06:15:21;;;;;;;0.93;0.70;;;2.90;99.90;;;;;;4985670;28;20038;-79
2023/01/28 06:17:47;;;;;;;1.40;1.00;;;2.90;99.90;;;;;;4970891;28;20031;-79
2023/01/28 06:20:12;;;;;;;1.35;0.75;;;2.90;99.90;;;;;;4970364;28;20035;-78
2023/01/28 06:22:38;;;;;;;9.73;1.58;;;3.00;99.90;;;;;;4971105;28;20433;-78
2023/01/28 06:25:04;;;;;;;4.38;1.25;;;3.00;99.90;;;;;;4970446;28;20046;-78
2023/01/28 06:27:30;;;;;;;0.85;0.65;;;3.00;99.90;;;;;;4970499;28;20058;-78
2023/01/28 06:29:56;;;;;;;2.25;0.93;;;3.00;99.90;;;;;;4970475;28;20073;-79
2023/01/28 06:32:22;;;;;;;2.05;0.88;;;3.00;99.90;;;;;;4970066;28;20414;-78
2023/01/28 06:34:47;;;;;;;3.03;1.27;;;3.00;99.90;;;;;;4970340;28;20045;-78
2023/01/28 06:37:14;;;;;;;1.45;1.00;;;3.10;99.90;;;;;;4988656;28;20745;-79
2023/01/28 06:39:40;;;;;;;1.02;0.82;;;3.10;99.90;;;;;;4988869;28;20039;-78
2023/01/28 06:42:06;;;;;;;0.90;0.80;;;3.10;99.90;;;;;;4989887;28;20038;-78
2023/01/28 06:44:31;;;;;;;2.40;1.45;;;3.10;99.90;;;;;;4974314;28;20502;-78
2023/01/28 06:46:57;;;;;;;2.50;0.80;;;3.10;99.90;;;;;;4974271;28;20027;-79
2023/01/28 06:49:23;;;;;;;1.80;0.95;;;3.10;99.90;;;;;;4989302;28;20416;-78
2023/01/28 06:51:49;;;;;;;4.75;0.95;;;3.20;99.90;;;;;;4974667;28;20043;-78
2023/01/28 06:54:14;;;;;;;1.25;1.05;;;3.20;99.90;;;;;;4973730;28;20085;-79
2023/01/28 06:56:40;;;;;;;2.63;0.80;;;3.10;99.90;;;;;;4988914;28;20165;-78
2023/01/28 06:59:06;;;;;;;4.05;1.15;;;3.00;99.90;;;;;;4973637;28;20031;-79
2023/01/28 07:01:32;;;;;;;0.80;0.75;;;3.10;99.90;;;;;;4972782;28;20035;-79
2023/01/28 07:03:58;;;;;;;2.47;1.42;;;3.10;99.90;;;;;;4960789;28;20035;-78
2023/01/28 07:06:24;;;;;;;1.33;1.00;;;3.00;99.90;;;;;;4962923;28;20058;-79
2023/01/28 07:08:50;;;;;;;3.97;1.38;;;3.00;99.90;;;;;;4974873;28;20113;-80
2023/01/28 07:11:15;;;;;;;1.40;1.00;;;3.00;99.90;;;;;;4968607;28;20094;-78
2023/01/28 07:13:42;;;;;;;3.28;1.48;;;2.80;99.90;;;;;;4966054;28;20125;-78
2023/01/28 07:16:08;;;;;;;8.00;1.45;;;2.80;99.90;;;;;;4976501;28;20034;-78
2023/01/28 07:18:34;;;;;;;2.65;1.48;;;2.90;99.90;;;;;;4969225;28;20158;-77
2023/01/28 07:21:00;;;;;;;1.85;1.38;;;2.90;99.90;;;;;;4982986;28;20110;-73
2023/01/28 07:23:26;;;;;;;1.63;1.13;;;2.90;99.90;;;;;;4974537;28;20494;-74
2023/01/28 07:25:51;;;;;;;1.35;0.95;;;2.80;99.90;;;;;;4973462;28;20050;-76
2023/01/28 07:28:20;;;;;;;1.67;1.25;;;2.80;99.90;;;;;;4973502;28;20031;-75
2023/01/28 07:30:52;;;;;;;2.72;1.60;;;2.80;99.90;;;;;;4973289;28;20037;-76
2023/01/28 07:33:18;;;;;;;1.88;0.80;;;2.90;99.90;;;;;;4981285;28;20031;-76
2023/01/28 07:35:44;;;;;;;6.85;2.00;;;2.80;99.90;;;;;;4973116;28;20039;-75
2023/01/28 07:38:11;;;;;;;6.97;1.75;;;2.70;99.90;;;;;;4988242;28;20035;-80
2023/01/28 07:40:37;;;;;;;4.43;2.45;;;2.80;99.90;;;;;;4988314;28;20050;-78
2023/01/28 07:43:03;;;;;;;1.85;1.15;;;2.90;99.90;;;;;;4969751;28;20483;-81
2023/01/28 07:45:30;;;;;;;1.98;1.27;;;2.90;99.90;;;;;;4970212;28;20054;-82
2023/01/28 07:48:05;;;;;;;8.77;1.67;;;2.90;99.90;;;;;;4965391;28;20506;-76
2023/01/28 07:50:35;;;;;;;8.55;1.40;;;2.90;99.90;;;;;;4973438;28;20031;-77
2023/01/28 07:53:10;;;;;;;9.23;1.58;;;2.90;99.90;;;;;;4972976;28;20042;-78
2023/01/28 07:55:37;;;;;;;2.58;2.20;;;2.90;99.90;;;;;;4985991;28;20134;-77
2023/01/28 07:58:06;;;;;;;3.40;1.45;;;2.90;99.90;;;;;;4986578;28;20034;-77
2023/01/28 08:00:36;;;;;;;2.50;1.70;;;3.00;99.90;;;;;;4988610;28;20030;-78
2023/01/28 08:03:06;;;;;;;4.90;1.85;;;3.00;99.90;;;;;;4984341;28;20031;-76
2023/01/28 08:05:46;;;;;;;2.40;1.17;;;3.00;99.90;;;;;;4987886;28;20027;-77
2023/01/28 08:08:12;;;;;;;1.80;1.15;;;3.00;99.90;;;;;;4958570;28;20030;-77
2023/01/28 08:10:39;;;;;;;2.08;1.00;;;3.00;99.90;;;;;;4951938;28;20108;-78
2023/01/28 08:13:06;;;;;;;3.92;1.70;;;3.10;99.90;;;;;;4968591;28;20495;-77
2023/01/28 08:15:32;;;;;;;4.25;1.77;;;3.10;99.90;;;;;;4956272;28;20038;-79
2023/01/28 08:17:59;;;;;;;1.65;1.10;;;3.20;99.90;;;;;;4963960;28;20038;-80
2023/01/28 08:20:27;;;;;;;3.95;1.35;;;3.10;99.90;;;;;;4967414;28;20051;-73
2023/01/28 08:22:53;;;;;;;1.90;1.35;;;3.00;99.90;;;;;;4977215;28;20026;-79
2023/01/28 08:25:19;;;;;;;5.07;1.77;;;3.10;99.90;;;;;;4973432;28;20711;-78
2023/01/28 08:27:45;;;;;;;2.90;1.50;;;3.10;99.90;;;;;;4965630;28;20050;-78
2023/01/28 08:30:11;;;;;;;2.17;1.55;;;3.10;99.90;;;;;;4967027;28;20027;-76
2023/01/28 08:32:37;;;;;;;2.85;1.98;;;3.20;99.90;;;;;;4958788;28;20525;-77
2023/01/28 08:35:04;;;;;;;1.92;1.50;;;3.20;99.90;;;;;;4954779;28;20125;-78
2023/01/28 08:37:30;;;;;;;2.85;1.83;;;3.20;99.90;;;;;;4958229;28;20395;-77
2023/01/28 08:39:55;;;;;;;5.63;1.65;;;3.20;99.90;;;;;;4969440;28;20042;-77
2023/01/28 08:42:21;;;;;;;3.58;1.00;;;3.20;99.90;;;;;;4971390;28;20033;-78
2023/01/28 08:44:47;;;;;;;3.55;1.98;;;3.30;99.90;;;;;;4957342;28;20045;-77
2023/01/28 08:47:13;;;;;;;2.15;1.50;;;3.30;99.90;;;;;;4952654;28;20089;-77
2023/01/28 08:49:39;;;;;;;3.45;1.40;;;3.30;99.90;;;;;;4955763;28;20035;-76
2023/01/28 08:52:05;;;;;;;2.00;1.30;;;3.30;99.90;;;;;;4955909;28;20045;-76
2023/01/28 08:54:32;;;;;;;2.28;1.40;;;3.30;99.90;;;;;;4954354;28;20106;-76
2023/01/28 08:56:58;;;;;;;2.25;1.45;;;3.30;99.90;;;;;;4954307;28;20039;-76
2023/01/28 08:59:23;;;;;;;5.13;1.58;;;3.40;99.90;;;;;;4953298;28;20070;-76
2023/01/28 09:01:50;;;;;;;4.10;1.88;;;3.40;99.90;;;;;;4962120;28;20037;-76
2023/01/28 09:04:16;;;;;;;5.03;2.53;;;3.40;99.90;;;;;;4986961;28;20085;-76
2023/01/28 09:06:41;;;;;;;4.78;1.75;;;3.30;99.90;;;;;;4971322;28;20435;-76
2023/01/28 09:09:07;;;;;;;5.93;2.92;;;3.20;99.90;;;;;;4971912;28;20071;-75
2023/01/28 09:11:33;;;;;;;4.80;2.15;;;3.20;99.90;;;;;;4969437;28;20043;-75
2023/01/28 09:13:59;;;;;;;3.38;1.55;;;3.30;99.90;;;;;;4967620;28;20058;-75
2023/01/28 09:16:25;;;;;;;2.90;1.67;;;3.40;99.90;;;;;;4971447;28;20109;-76
2023/01/28 09:18:52;;;;;;;2.75;1.88;;;3.40;99.90;;;;;;4970382;28;20619;-75
2023/01/28 09:21:19;;;;;;;2.65;1.83;;;3.60;99.90;;;;;;4986760;28;20031;-75
2023/01/28 09:23:45;;;;;;;4.90;2.03;;;3.60;99.90;;;;;;4985317;28;20034;-72
2023/01/28 09:26:11;;;;;;;5.68;1.70;;;3.60;99.90;;;;;;4971762;28;20455;-78
2023/01/28 09:28:37;;;;;;;6.70;2.03;;;3.50;99.90;;;;;;4970424;28;20372;-74
2023/01/28 09:31:09;;;;;;;2.25;1.48;;;3.70;99.90;;;;;;4971731;28;20490;-75
2023/01/28 09:33:37;;;;;;;3.53;2.25;;;3.80;99.90;;;;;;4985283;28;20376;-74
2023/01/28 09:36:08;;;;;;;3.00;1.75;;;3.80;99.90;;;;;;4972430;28;20638;-77
2023/01/28 09:38:35;;;;;;;2.08;1.33;;;3.70;99.90;;;;;;4985549;28;20062;-76
2023/01/28 09:41:11;;;;;;;2.75;1.73;;;3.70;99.90;;;;;;4971390;28;20022;-73
2023/01/28 09:43:53;;;;;;;5.85;2.40;;;3.70;99.90;;;;;;4984841;28;20120;-74
2023/01/28 09:46:19;;;;;;;5.47;1.85;;;3.60;99.90;;;;;;4960535;28;20026;-75
2023/01/28 09:48:52;;;;;;;3.22;1.38;;;3.60;99.90;;;;;;4984907;28;20042;-76
2023/01/28 09:51:34;;;;;;;1.88;1.45;;;3.70;99.90;;;;;;4978870;28;20114;-77
2023/01/28 09:54:36;;;;;;;2.63;1.60;;;3.80;99.90;;;;;;4985567;28;20027;-76
2023/01/28 09:57:23;;;;;;;3.45;2.35;;;3.80;99.90;;;;;;4949322;28;20073;-76
2023/01/28 09:59:49;;;;;;;1.83;1.40;;;3.90;99.90;;;;;;4984728;28;20097;-76
2023/01/28 10:02:27;;;;;;;4.00;1.80;;;3.70;99.90;;;;;;4970346;28;20454;-77
2023/01/28 10:05:11;;;;;;;3.03;1.35;;;4.00;99.90;;;;;;4970576;28;20134;-76
2023/01/28 10:08:21;;;;;;;2.33;1.35;;;4.10;99.90;;;;;;4969412;28;20513;-76
2023/01/28 10:11:01;;;;;;;3.20;1.77;;;4.00;99.90;;;;;;4966235;28;20166;-77
2023/01/28 10:13:50;;;;;;;2.47;1.73;;;3.90;99.90;;;;;;4970182;28;20110;-77
2023/01/28 10:16:36;;;;;;;2.78;1.35;;;4.00;99.90;;;;;;4980778;28;20364;-77
2023/01/28 10:19:26;;;;;;;6.65;2.08;;;4.00;99.90;;;;;;4985600;28;20042;-77
2023/01/28 10:22:03;;;;;;;2.22;1.58;;;4.10;99.90;;;;;;4989991;28;20038;-77
2023/01/28 10:24:40;;;;;;;8.98;2.45;;;4.10;99.90;;;;;;4974097;28;20466;-76
2023/01/28 10:27:20;;;;;;;3.10;1.45;;;3.80;99.90;;;;;;4987631;28;20037;-77
2023/01/28 10:29:48;;;;;;;4.32;1.90;;;3.90;99.90;;;;;;4972756;28;20031;-78
2023/01/28 10:32:32;;;;;;;10.00;1.70;;;3.90;99.90;;;;;;4976274;28;20026;-77
2023/01/28 10:35:01;;;;;;;2.70;1.75;;;4.10;99.90;;;;;;4989245;28;20111;-78
2023/01/28 10:37:32;;;;;;;4.47;1.40;;;4.10;99.90;;;;;;4988981;28;20046;-77
2023/01/28 10:39:59;;;;;;;4.15;2.20;;;4.00;99.90;;;;;;4988364;28;20102;-79
2023/01/28 10:42:37;;;;;;;3.83;1.48;;;4.00;99.90;;;;;;4988716;28;20117;-79
2023/01/28 10:45:28;;;;;;;2.78;1.23;;;3.90;99.90;;;;;;4975699;28;20105;-75
2023/01/28 10:48:28;;;;;;;5.20;2.08;;;4.00;99.90;;;;;;4985991;28;20035;-78
2023/01/28 10:51:01;;;;;;;2.40;1.77;;;4.10;99.90;;;;;;4973751;28;20110;-79
2023/01/28 10:53:35;;;;;;;5.03;2.83;;;4.00;99.90;;;;;;4964204;28;20062;-74
2023/01/28 10:56:04;;;;;;;4.22;1.48;;;4.00;99.90;;;;;;4967757;28;20057;-75
2023/01/28 10:58:35;;;;;;;3.35;1.40;;;4.00;99.90;;;;;;4967409;28;20121;-81
2023/01/28 11:01:04;;;;;;;1.77;1.05;;;4.00;99.90;;;;;;4979863;28;20098;-81
2023/01/28 11:03:31;;;;;;;1.40;1.23;;;4.00;99.90;;;;;;4989391;28;20035;-73
2023/01/28 11:05:57;;;;;;;2.30;1.40;;;4.00;99.90;;;;;;4988255;28;20031;-76
2023/01/28 11:08:27;;;;;;;1.80;1.08;;;3.90;99.90;;;;;;4988617;28;20039;-77
2023/01/28 11:10:55;;;;;;;1.85;1.00;;;3.90;99.90;;;;;;4988835;28;20162;-78
2023/01/28 11:13:27;;;;;;;2.13;1.42;;;3.70;99.90;;;;;;4989277;28;20115;-76
2023/01/28 11:16:16;;;;;;;2.08;1.38;;;3.80;99.90;;;;;;4960716;28;20035;-75
2023/01/28 11:18:55;;;;;;;2.17;1.25;;;3.90;99.90;;;;;;4989033;23;20023;-77
2023/01/28 11:21:28;;;;;;;2.60;1.50;;;3.90;99.90;;;;;;5007204;28;20098;-77
2023/01/28 11:24:05;;;;;;;2.90;1.67;;;3.90;99.90;;;;;;4994250;28;20058;-74
2023/01/28 11:26:38;;;;;;;6.05;1.73;;;3.80;99.90;;;;;;5004409;28;20076;-73
2023/01/28 11:29:05;;;;;;;1.42;0.93;;;3.80;99.90;;;;;;5010377;28;20018;-74
2023/01/28 11:31:41;;;;;;;4.03;1.15;;;3.80;99.90;;;;;;5011869;28;20117;-74
2023/01/28 11:34:07;;;;;;;2.17;1.42;;;4.00;99.90;;;;;;5008169;28;20080;-74
2023/01/28 11:36:34;;;;;;;4.07;1.35;;;4.00;99.90;;;;;;5002744;28;20042;-73
2023/01/28 11:39:29;;;;;;;4.40;1.30;;;4.00;99.90;;;;;;4949622;28;20042;-72
2023/01/28 11:42:11;;;;;;;1.95;1.25;;;4.10;99.90;;;;;;4976498;28;20405;-73
2023/01/28 11:44:38;;;;;;;2.38;1.58;;;4.30;99.90;;;;;;4995183;28;20036;-74
2023/01/28 11:47:26;;;;;;;4.40;1.13;;;4.20;99.90;;;;;;5009769;28;20038;-74
2023/01/28 11:50:43;;;;;;;0.70;0.63;;;4.10;99.90;;;;;;5009489;28;20032;-75
2023/01/28 11:53:56;;;;;;;3.00;1.25;;;4.30;99.90;;;;;;5009090;28;20447;-74
2023/01/28 11:57:12;;;;;;;2.50;1.45;;;4.30;99.90;;;;;;4998092;28;20164;-75
2023/01/28 12:00:05;;;;;;;2.58;1.33;;;4.20;99.90;;;;;;4912827;29;20529;-75
2023/01/28 12:03:09;;;;;;;3.38;1.70;;;4.30;99.90;;;;;;4916644;29;20035;-76
2023/01/28 12:05:52;;;;;;;6.20;1.13;;;4.40;99.90;;;;;;4982082;28;20049;-75
2023/01/28 12:08:44;;;;;;;1.63;1.33;;;4.50;99.90;;;;;;5001334;28;20632;-75
2023/01/28 12:14:27;;;;;;;6.78;1.17;;;4.30;99.90;;;;;;5003610;28;20030;-75
2023/01/28 12:17:38;;;;;;;3.30;1.70;;;4.30;99.90;;;;;;5010573;28;20026;-76
2023/01/28 12:20:17;;;;;;;0.65;0.60;;;4.40;99.90;;;;;;5007574;28;20068;-75
2023/01/28 12:23:10;;;;;;;1.27;0.85;;;4.30;99.90;;;;;;5010806;28;20422;-75
2023/01/28 12:25:56;;;;;;;2.13;1.38;;;4.20;99.90;;;;;;5006925;28;20061;-75
2023/01/28 12:28:33;;;;;;;3.03;1.15;;;4.20;99.90;;;;;;5008557;28;20034;-73
2023/01/28 12:31:34;;;;;;;1.35;0.75;;;4.20;99.90;;;;;;5012078;28;20114;-75
2023/01/28 12:34:35;;;;;;;1.00;0.70;;;4.10;99.90;;;;;;4987499;28;20477;-74
2023/01/28 12:37:16;;;;;;;1.83;1.42;;;4.20;99.90;;;;;;5011182;28;20034;-74
2023/01/28 12:40:11;;;;;;;1.95;1.33;;;4.10;99.90;;;;;;5003225;28;20045;-74
2023/01/28 12:43:00;;;;;;;3.08;0.95;;;4.10;99.90;;;;;;5006636;28;20033;-75
2023/01/28 12:46:04;;;;;;;1.10;0.70;;;4.00;99.90;;;;;;5008202;28;20030;-76
2023/01/28 12:48:43;;;;;;;3.58;1.63;;;4.10;99.90;;;;;;4989083;28;20466;-76
2023/01/28 12:51:14;;;;;;;3.53;1.10;;;3.90;99.90;;;;;;4999353;28;20049;-75
2023/01/28 12:53:54;;;;;;;3.33;1.23;;;4.00;99.90;;;;;;5008854;28;20076;-74
2023/01/28 12:56:28;;;;;;;1.02;0.85;;;3.90;99.90;;;;;;5002878;28;20037;-73
2023/01/28 12:59:21;;;;;;;3.13;0.70;;;4.00;99.90;;;;;;5001374;28;20027;-73
2023/01/28 13:02:22;;;;;;;8.77;1.40;;;4.10;99.90;;;;;;5010059;28;20117;-74
2023/01/28 13:05:16;;;;;;;2.70;0.88;;;4.30;99.90;;;;;;5005517;28;20029;-74
2023/01/28 13:07:57;;;;;;;3.05;1.00;;;4.40;99.90;;;;;;4993460;28;20065;-73
2023/01/28 13:10:43;;;;;;;1.55;0.75;;;4.20;99.90;;;;;;4975672;28;20113;-73
2023/01/28 13:13:34;;;;;;;1.23;0.60;;;4.50;99.90;;;;;;4977139;28;20036;-73
2023/01/28 13:16:02;;;;;;;1.98;0.65;;;4.60;99.90;;;;;;4991540;28;20111;-73
2023/01/28 13:18:41;;;;;;;2.13;1.05;;;4.90;99.90;;;;;;4999332;28;20030;-73
2023/01/28 13:21:32;;;;;;;2.63;1.27;;;4.60;99.90;;;;;;5010893;28;20034;-73
2023/01/28 13:24:00;;;;;;;2.42;1.23;;;4.80;99.90;;;;;;5005166;28;20088;-73
2023/01/28 13:26:42;;;;;;;2.08;1.05;;;5.00;99.90;;;;;;5010013;28;20369;-73
2023/01/28 13:29:14;;;;;;;3.45;1.55;;;5.00;99.90;;;;;;5005172;28;20117;-74
2023/01/28 13:31:47;;;;;;;0.98;0.98;;;5.00;99.90;;;;;;5010595;28;20522;-73
2023/01/28 13:34:28;;;;;;;3.85;1.77;;;4.80;99.90;;;;;;4991800;28;20049;-73
2023/01/28 13:36:57;;;;;;;4.20;0.98;;;4.60;99.90;;;;;;5009043;28;20109;-73
2023/01/28 13:39:25;;;;;;;3.70;1.10;;;4.80;99.90;;;;;;5004777;28;20429;-73
2023/01/28 13:42:20;;;;;;;1.85;0.93;;;4.70;99.90;;;;;;5001310;28;20034;-72
2023/01/28 13:44:46;;;;;;;7.20;1.25;;;4.70;99.90;;;;;;5007189;28;20032;-72
2023/01/28 13:47:24;;;;;;;1.65;0.90;;;4.70;99.90;;;;;;4999600;28;20105;-72
2023/01/28 13:50:11;;;;;;;0.90;0.70;;;4.70;99.90;;;;;;5002904;28;20061;-72
2023/01/28 13:52:58;;;;;;;3.72;1.58;;;4.50;99.90;;;;;;4988943;28;20030;-72
2023/01/28 13:55:30;;;;;;;2.25;1.60;;;4.70;99.90;;;;;;5006101;28;20128;-73
2023/01/28 13:58:05;;;;;;;1.88;1.42;;;4.60;99.90;;;;;;5008872;28;20030;-73
2023/01/28 14:00:45;;;;;;;1.50;1.08;;;4.30;99.90;;;;;;5005761;28;20116;-73
2023/01/28 14:03:53;;;;;;;4.22;1.80;;;4.40;99.90;;;;;;5010128;28;20073;-73
2023/01/28 14:06:52;;;;;;;2.25;1.27;;;4.40;99.90;;;;;;4986707;28;20037;-73